createdAt,value
2023-03-24T00:02:04.864Z,1.73
2023-03-24T00:12:26.545Z,1.88
2023-03-24T00:22:51.236Z,2.00
2023-03-24T00:33:13.795Z,1.73
2023-03-24T00:43:35.288Z,1.80
2023-03-24T00:53:58.297Z,1.77
2023-03-24T01:04:20.855Z,1.80
2023-03-24T01:14:42.069Z,1.88
2023-03-24T01:25:05.300Z,1.90
2023-03-24T01:35:29.378Z,1.67
2023-03-24T01:46:14.583Z,1.88
2023-03-24T01:56:40.479Z,1.92
2023-03-24T02:17:52.114Z,1.88
2023-03-24T02:39:09.591Z,2.10
2023-03-24T02:49:48.862Z,1.65
2023-03-24T03:00:18.380Z,1.80
2023-03-24T03:11:05.772Z,1.70
2023-03-24T03:21:31.158Z,1.60
2023-03-24T03:31:59.855Z,1.60
2023-03-24T03:42:21.258Z,2.17
2023-03-24T03:52:44.841Z,1.88
2023-03-24T04:03:37.348Z,1.80
2023-03-24T04:14:00.767Z,1.80
2023-03-24T04:24:42.621Z,1.40
2023-03-24T04:35:32.923Z,1.70
2023-03-24T04:46:05.298Z,1.97
2023-03-24T04:56:51.154Z,2.00
2023-03-24T05:07:17.705Z,1.85
2023-03-24T05:17:42.605Z,1.80
2023-03-24T05:28:05.035Z,1.60
2023-03-24T05:38:27.306Z,1.83
2023-03-24T05:48:50.324Z,1.63
2023-03-24T05:59:14.342Z,1.75
2023-03-24T06:09:58.534Z,1.60
2023-03-24T06:20:21.616Z,1.70
2023-03-24T06:31:05.389Z,1.60
2023-03-24T06:41:30.340Z,1.73
2023-03-24T06:51:55.109Z,1.75
2023-03-24T07:02:18.972Z,1.30
2023-03-24T07:12:44.934Z,1.42
2023-03-24T07:23:06.352Z,1.48
2023-03-24T07:33:44.741Z,1.42
2023-03-24T07:44:05.978Z,1.60
2023-03-24T07:54:43.399Z,1.73
2023-03-24T08:05:14.667Z,1.52
2023-03-24T08:15:46.845Z,1.33
2023-03-24T08:26:10.841Z,1.70
2023-03-24T08:36:32.619Z,1.65
2023-03-24T08:46:53.702Z,1.60
2023-03-24T08:57:15.125Z,1.65
2023-03-24T09:07:37.115Z,1.70
2023-03-24T09:17:58.240Z,1.63
2023-03-24T09:28:20.588Z,1.88
2023-03-24T09:38:41.545Z,1.50
2023-03-24T09:49:04.493Z,1.55
2023-03-24T09:59:28.800Z,1.90
2023-03-24T10:10:01.518Z,1.80
2023-03-24T10:20:53.887Z,1.70
2023-03-24T10:31:17.020Z,1.70
2023-03-24T10:41:38.714Z,1.63
2023-03-24T10:52:09.360Z,1.42
2023-03-24T11:02:32.064Z,1.52
2023-03-24T11:12:53.837Z,1.63
2023-03-24T11:23:18.029Z,1.50
2023-03-24T11:33:46.763Z,1.40
2023-03-24T11:44:25.955Z,1.30
2023-03-24T11:54:47.170Z,1.40
2023-03-24T12:05:24.217Z,1.40
2023-03-24T12:15:56.194Z,1.38
2023-03-24T12:26:21.590Z,1.20
2023-03-24T12:37:06.266Z,1.40
2023-03-24T12:47:57.470Z,1.33
2023-03-24T12:58:23.135Z,1.08
2023-03-24T13:08:50.444Z,1.05
2023-03-24T13:19:18.675Z,1.00
2023-03-24T13:30:19.550Z,1.10
2023-03-24T13:40:41.237Z,1.15
2023-03-24T13:51:09.287Z,1.00
2023-03-24T14:01:41.159Z,1.00
2023-03-24T14:12:02.350Z,1.00
2023-03-24T14:22:30.878Z,1.00
2023-03-24T14:32:57.123Z,0.95
2023-03-24T14:43:29.720Z,1.00
2023-03-24T14:53:51.299Z,0.93
2023-03-24T15:04:13.980Z,0.80
2023-03-24T15:14:35.734Z,1.05
2023-03-24T15:24:58.341Z,1.02
2023-03-24T15:35:22.226Z,1.10
2023-03-24T15:45:57.893Z,1.10
2023-03-24T15:56:28.311Z,1.10
2023-03-24T16:06:53.546Z,0.80
2023-03-24T16:17:15.583Z,1.15
2023-03-24T16:27:36.814Z,1.00
2023-03-24T16:37:58.290Z,1.02
2023-03-24T16:48:19.466Z,1.10
2023-03-24T16:58:40.987Z,0.90
2023-03-24T17:09:04.331Z,1.10
2023-03-24T17:19:26.054Z,1.23
2023-03-24T17:29:47.293Z,1.20
2023-03-24T17:40:10.707Z,1.27
2023-03-24T17:50:32.046Z,1.30
2023-03-24T18:00:54.081Z,1.30
2023-03-24T18:11:15.666Z,1.40
2023-03-24T18:21:37.851Z,1.30
2023-03-24T18:31:58.943Z,1.10
2023-03-24T18:42:20.468Z,1.30
2023-03-24T18:52:42.047Z,1.10
2023-03-24T19:03:03.210Z,1.23
2023-03-24T19:13:24.725Z,1.17
2023-03-24T19:23:47.082Z,1.13
2023-03-24T19:34:08.940Z,1.27
2023-03-24T19:44:30.461Z,1.23
2023-03-24T19:54:52.652Z,1.20
2023-03-24T20:05:15.038Z,1.15
2023-03-24T20:15:36.535Z,1.30
2023-03-24T20:26:01.202Z,1.17
2023-03-24T20:36:22.745Z,1.70
2023-03-24T20:46:45.900Z,1.20
2023-03-24T20:57:12.177Z,1.35
2023-03-24T21:07:33.497Z,1.17
2023-03-24T21:17:54.929Z,1.55
2023-03-24T21:28:19.714Z,1.52
2023-03-24T21:38:41.767Z,1.20
2023-03-24T21:49:03.252Z,1.60
2023-03-24T21:59:24.657Z,1.35
2023-03-24T22:09:45.767Z,1.35
2023-03-24T22:20:09.425Z,1.33
2023-03-24T22:30:30.706Z,1.58
2023-03-24T22:40:55.814Z,1.60
2023-03-24T22:51:19.538Z,1.10
2023-03-24T23:01:41.287Z,1.38
2023-03-24T23:12:02.854Z,1.70
2023-03-24T23:22:23.725Z,1.10
2023-03-24T23:32:47.134Z,1.20
2023-03-24T23:43:08.818Z,1.30
2023-03-24T23:53:30.934Z,1.30
